createdAt,value
2023-01-10T00:01:27.272Z,84.42
2023-01-10T00:03:53.586Z,84.72
2023-01-10T00:06:19.918Z,84.21
2023-01-10T00:08:46.235Z,84.03
2023-01-10T00:11:31.451Z,84.04
2023-01-10T00:13:57.821Z,84.02
2023-01-10T00:16:24.176Z,82.88
2023-01-10T00:18:50.543Z,82.68
2023-01-10T00:21:16.921Z,82.62
2023-01-10T00:23:43.513Z,82.92
2023-01-10T00:26:09.842Z,83.10
2023-01-10T00:28:36.209Z,83.04
2023-01-10T00:31:06.462Z,83.12
2023-01-10T00:33:32.857Z,83.32
2023-01-10T00:35:59.168Z,82.94
2023-01-10T00:38:25.478Z,83.26
2023-01-10T00:40:51.818Z,83.66
2023-01-10T00:43:36.984Z,83.67
2023-01-10T00:46:03.348Z,83.69
2023-01-10T00:48:29.710Z,84.17
2023-01-10T00:50:56.029Z,84.85
2023-01-10T00:53:22.358Z,83.56
2023-01-10T00:55:48.668Z,83.53
2023-01-10T00:58:15.060Z,82.56
2023-01-10T01:00:41.378Z,83.69
2023-01-10T01:03:08.141Z,83.07
2023-01-10T01:05:34.518Z,83.42
2023-01-10T01:08:00.831Z,83.24
2023-01-10T01:10:27.172Z,83.06
2023-01-10T01:12:53.487Z,83.83
2023-01-10T01:15:22.928Z,84.03
2023-01-10T01:17:49.253Z,83.64
2023-01-10T01:20:15.587Z,83.31
2023-01-10T01:22:41.884Z,83.11
2023-01-10T01:25:08.233Z,83.13
2023-01-10T01:27:35.179Z,83.05
2023-01-10T01:30:01.509Z,83.22
2023-01-10T01:32:27.939Z,83.41
2023-01-10T01:34:54.500Z,83.26
2023-01-10T01:37:20.852Z,83.56
2023-01-10T01:39:47.230Z,83.58
2023-01-10T01:42:13.544Z,83.44
2023-01-10T01:44:39.854Z,83.13
2023-01-10T01:49:37.961Z,83.68
2023-01-10T01:52:04.294Z,83.54
2023-01-10T01:54:30.607Z,84.00
2023-01-10T01:56:56.964Z,83.55
2023-01-10T01:59:23.845Z,84.18
2023-01-10T02:01:50.275Z,84.56
2023-01-10T02:04:16.678Z,84.73
2023-01-10T02:06:43.047Z,84.45
2023-01-10T02:09:09.426Z,83.92
2023-01-10T02:11:35.829Z,84.34
2023-01-10T02:14:02.587Z,85.28
2023-01-10T02:16:28.906Z,84.54
2023-01-10T02:18:55.221Z,84.22
2023-01-10T02:21:21.545Z,84.60
2023-01-10T02:23:47.861Z,84.67
2023-01-10T02:26:14.185Z,84.28
2023-01-10T02:28:40.510Z,84.63
2023-01-10T02:31:06.876Z,84.85
2023-01-10T02:33:33.227Z,85.87
2023-01-10T02:35:59.627Z,85.00
2023-01-10T02:38:25.945Z,85.26
2023-01-10T02:40:52.255Z,85.06
2023-01-10T02:43:19.457Z,84.88
2023-01-10T02:45:45.794Z,85.24
2023-01-10T02:48:12.138Z,85.59
2023-01-10T02:50:38.739Z,85.93
2023-01-10T02:53:05.123Z,86.65
2023-01-10T02:55:31.470Z,85.96
2023-01-10T02:57:57.772Z,88.56
2023-01-10T03:00:24.715Z,89.87
2023-01-10T03:02:51.026Z,91.77
2023-01-10T03:05:17.369Z,91.66
2023-01-10T03:07:43.697Z,91.18
2023-01-10T03:10:10.036Z,91.30
2023-01-10T03:12:36.348Z,91.30
2023-01-10T03:15:03.048Z,91.42
2023-01-10T03:17:29.766Z,90.81
2023-01-10T03:19:56.329Z,90.97
2023-01-10T03:22:22.649Z,89.72
2023-01-10T03:24:48.959Z,91.58
2023-01-10T03:27:15.266Z,92.53
2023-01-10T03:29:41.613Z,93.51
2023-01-10T03:32:07.917Z,93.89
2023-01-10T03:34:34.231Z,93.04
2023-01-10T03:37:00.561Z,94.16
2023-01-10T03:39:26.899Z,93.34
2023-01-10T03:41:53.248Z,92.57
2023-01-10T03:44:38.318Z,92.93
2023-01-10T03:47:04.672Z,93.48
2023-01-10T03:49:30.994Z,94.02
2023-01-10T03:51:57.341Z,94.26
2023-01-10T03:54:23.679Z,93.35
2023-01-10T03:56:50.046Z,92.40
2023-01-10T03:59:16.403Z,92.52
2023-01-10T04:01:42.839Z,91.88
2023-01-10T04:04:09.252Z,91.57
2023-01-10T04:06:35.618Z,91.52
2023-01-10T04:09:01.932Z,91.29
2023-01-10T04:11:28.446Z,91.30
2023-01-10T04:13:54.798Z,91.02
2023-01-10T04:16:21.173Z,90.62
2023-01-10T04:18:47.581Z,91.03
2023-01-10T04:21:13.912Z,91.14
2023-01-10T04:23:40.271Z,90.94
2023-01-10T04:26:06.592Z,90.44
2023-01-10T04:28:32.912Z,90.05
2023-01-10T04:30:59.325Z,89.48
2023-01-10T04:33:25.651Z,89.65
2023-01-10T04:35:52.019Z,88.86
2023-01-10T04:38:18.349Z,89.64
2023-01-10T04:40:44.685Z,89.01
2023-01-10T04:43:11.002Z,89.65
2023-01-10T04:45:37.531Z,89.46
2023-01-10T04:48:03.903Z,90.31
2023-01-10T04:50:30.286Z,89.86
2023-01-10T04:52:56.672Z,89.41
2023-01-10T04:55:23.394Z,90.44
2023-01-10T04:57:49.722Z,90.71
2023-01-10T05:00:16.067Z,90.59
2023-01-10T05:02:45.555Z,89.46
2023-01-10T05:05:12.024Z,89.79
2023-01-10T05:07:38.409Z,90.06
2023-01-10T05:10:04.727Z,89.75
2023-01-10T05:12:31.096Z,89.37
2023-01-10T05:14:57.401Z,88.78
2023-01-10T05:17:23.751Z,89.53
2023-01-10T05:19:50.061Z,89.42
2023-01-10T05:22:16.388Z,89.07
2023-01-10T05:24:42.699Z,89.72
2023-01-10T05:27:09.073Z,88.04
2023-01-10T05:29:35.443Z,88.99
2023-01-10T05:32:01.807Z,88.70
2023-01-10T05:34:28.188Z,89.00
2023-01-10T05:36:54.525Z,88.23
2023-01-10T05:39:21.512Z,88.89
2023-01-10T05:41:47.813Z,88.30
2023-01-10T05:44:14.895Z,88.21
2023-01-10T05:46:41.327Z,88.62
2023-01-10T05:49:07.683Z,88.52
2023-01-10T05:51:33.989Z,89.29
2023-01-10T05:54:00.324Z,89.33
2023-01-10T05:56:26.647Z,90.48
2023-01-10T05:59:04.415Z,90.34
2023-01-10T06:01:31.887Z,90.18
2023-01-10T06:03:58.318Z,89.64
2023-01-10T06:06:24.726Z,90.11
2023-01-10T06:08:51.064Z,89.55
2023-01-10T06:11:17.402Z,90.35
2023-01-10T06:13:43.804Z,90.23
2023-01-10T06:16:10.174Z,89.41
2023-01-10T06:18:36.521Z,89.54
2023-01-10T06:21:02.840Z,89.59
2023-01-10T06:23:30.412Z,89.81
2023-01-10T06:25:56.712Z,89.98
2023-01-10T06:28:23.030Z,89.93
2023-01-10T06:30:49.354Z,89.91
2023-01-10T06:33:15.675Z,90.14
2023-01-10T06:35:42.053Z,89.14
2023-01-10T06:38:08.609Z,89.52
2023-01-10T06:40:35.051Z,90.39
2023-01-10T06:43:01.475Z,90.71
2023-01-10T06:45:27.915Z,90.12
2023-01-10T06:47:54.221Z,90.50
2023-01-10T06:50:20.603Z,90.07
2023-01-10T06:52:46.957Z,90.03
2023-01-10T06:55:13.308Z,89.79
2023-01-10T06:57:39.637Z,89.46
2023-01-10T07:00:06.341Z,90.07
2023-01-10T07:02:32.664Z,89.32
2023-01-10T07:04:58.986Z,89.06
2023-01-10T07:07:25.291Z,89.06
2023-01-10T07:09:51.624Z,90.14
2023-01-10T07:12:17.959Z,89.66
2023-01-10T07:14:44.310Z,89.36
2023-01-10T07:17:10.708Z,89.57
2023-01-10T07:19:37.058Z,89.62
2023-01-10T07:22:03.683Z,89.36
2023-01-10T07:24:30.005Z,89.30
2023-01-10T07:26:56.628Z,90.08
2023-01-10T07:29:23.011Z,91.06
2023-01-10T07:31:49.367Z,92.07
2023-01-10T07:34:15.712Z,92.04
2023-01-10T07:36:42.054Z,92.14
2023-01-10T07:39:08.449Z,91.97
2023-01-10T07:41:34.852Z,91.94
2023-01-10T07:44:01.181Z,91.86
2023-01-10T07:46:27.591Z,91.37
2023-01-10T07:48:53.964Z,91.51
2023-01-10T07:51:20.349Z,91.40
2023-01-10T07:53:46.689Z,92.31
2023-01-10T07:56:13.122Z,93.76
2023-01-10T07:58:39.429Z,94.67
2023-01-10T08:01:06.467Z,96.06
2023-01-10T08:03:36.846Z,96.70
2023-01-10T08:06:03.268Z,96.52
2023-01-10T08:08:29.653Z,96.75
2023-01-10T08:10:56.024Z,95.63
2023-01-10T08:13:22.383Z,95.53
2023-01-10T08:15:50.527Z,94.94
2023-01-10T08:18:17.084Z,94.35
2023-01-10T08:20:43.458Z,93.66
2023-01-10T08:23:09.775Z,94.45
2023-01-10T08:25:37.944Z,93.29
2023-01-10T08:28:05.687Z,93.59
2023-01-10T08:30:32.030Z,94.26
2023-01-10T08:32:58.394Z,94.95
2023-01-10T08:35:24.762Z,94.32
2023-01-10T08:37:51.098Z,93.59
2023-01-10T08:40:17.429Z,93.07
2023-01-10T08:42:43.738Z,92.86
2023-01-10T08:45:10.147Z,93.41
2023-01-10T08:47:36.516Z,93.41
2023-01-10T08:50:02.958Z,93.13
2023-01-10T08:52:29.333Z,92.65
2023-01-10T08:54:55.651Z,92.36
2023-01-10T08:57:21.988Z,91.84
2023-01-10T08:59:48.341Z,92.84
2023-01-10T09:02:15.106Z,93.26
2023-01-10T09:04:41.447Z,92.02
2023-01-10T09:07:07.823Z,92.38
2023-01-10T09:09:34.164Z,92.65
2023-01-10T09:12:00.487Z,91.70
2023-01-10T09:14:26.838Z,91.82
2023-01-10T09:16:53.150Z,90.59
2023-01-10T09:19:19.463Z,90.42
2023-01-10T09:21:45.778Z,89.97
2023-01-10T09:24:12.488Z,89.29
2023-01-10T09:26:38.823Z,88.55
2023-01-10T09:29:05.148Z,88.89
2023-01-10T09:31:31.533Z,89.04
2023-01-10T09:33:57.863Z,87.88
2023-01-10T09:36:24.198Z,89.11
2023-01-10T09:38:50.524Z,89.61
2023-01-10T09:41:16.846Z,90.31
2023-01-10T09:43:43.149Z,90.92
2023-01-10T09:46:09.473Z,90.43
2023-01-10T09:48:35.804Z,91.60
2023-01-10T09:51:02.144Z,93.08
2023-01-10T09:53:28.477Z,92.64
2023-01-10T09:55:54.860Z,95.48
2023-01-10T09:58:21.278Z,95.48
2023-01-10T10:00:47.609Z,98.31
2023-01-10T10:03:14.004Z,100.00
2023-01-10T10:05:40.375Z,99.69
2023-01-10T10:08:07.426Z,100.00
2023-01-10T10:10:33.759Z,99.95
2023-01-10T10:13:00.084Z,99.31
2023-01-10T10:15:26.396Z,98.96
2023-01-10T10:17:52.735Z,100.00
2023-01-10T10:20:19.075Z,99.69
2023-01-10T10:22:45.396Z,99.49
2023-01-10T10:25:11.819Z,99.29
2023-01-10T10:27:38.147Z,97.32
2023-01-10T10:30:04.885Z,97.06
2023-01-10T10:32:31.210Z,98.20
2023-01-10T10:34:57.571Z,97.64
2023-01-10T10:37:23.884Z,97.91
2023-01-10T10:39:50.228Z,98.86
2023-01-10T10:42:16.569Z,98.52
2023-01-10T10:44:43.023Z,99.40
2023-01-10T10:47:09.325Z,95.51
2023-01-10T10:49:35.643Z,94.22
2023-01-10T10:52:01.982Z,92.41
2023-01-10T10:54:28.315Z,91.37
2023-01-10T10:56:56.217Z,90.76
2023-01-10T10:59:22.581Z,87.95
2023-01-10T11:01:49.976Z,88.22
2023-01-10T11:04:16.390Z,86.94
2023-01-10T11:06:48.897Z,87.76
2023-01-10T11:09:16.316Z,86.83
2023-01-10T11:11:42.703Z,87.23
2023-01-10T11:14:09.042Z,86.05
2023-01-10T11:16:36.792Z,87.34
2023-01-10T11:19:03.124Z,85.73
2023-01-10T11:21:29.443Z,85.89
2023-01-10T11:23:55.773Z,86.17
2023-01-10T11:26:22.122Z,86.10
2023-01-10T11:28:48.843Z,85.32
2023-01-10T11:31:15.209Z,85.72
2023-01-10T11:33:41.538Z,85.27
2023-01-10T11:36:07.963Z,85.26
2023-01-10T11:38:35.016Z,83.84
2023-01-10T11:41:01.372Z,84.35
2023-01-10T11:43:27.768Z,84.81
2023-01-10T11:45:54.123Z,84.81
2023-01-10T11:48:21.407Z,83.75
2023-01-10T11:50:50.966Z,83.62
2023-01-10T11:53:17.318Z,83.12
2023-01-10T11:55:43.653Z,82.39
2023-01-10T11:58:10.150Z,81.85
2023-01-10T12:00:36.559Z,82.40
2023-01-10T12:03:02.878Z,81.60
2023-01-10T12:05:29.329Z,82.03
2023-01-10T12:07:56.313Z,80.82
2023-01-10T12:10:22.698Z,80.99
2023-01-10T12:12:49.004Z,79.19
2023-01-10T12:15:15.344Z,79.39
2023-01-10T12:17:41.701Z,79.95
2023-01-10T12:20:08.042Z,79.54
2023-01-10T12:22:34.353Z,78.40
2023-01-10T12:25:00.665Z,77.72
2023-01-10T12:27:27.496Z,78.22
2023-01-10T12:29:53.843Z,77.39
2023-01-10T12:32:20.303Z,77.13
2023-01-10T12:34:46.621Z,77.48
2023-01-10T12:37:14.795Z,76.41
2023-01-10T12:39:41.420Z,77.52
2023-01-10T12:42:26.738Z,75.59
2023-01-10T12:44:53.050Z,76.25
2023-01-10T12:47:19.656Z,76.80
2023-01-10T12:49:46.077Z,75.27
2023-01-10T12:52:12.395Z,74.81
2023-01-10T12:54:38.719Z,74.92
2023-01-10T12:57:05.044Z,75.45
2023-01-10T12:59:38.054Z,74.55
2023-01-10T13:02:04.566Z,75.95
2023-01-10T13:04:30.921Z,76.15
2023-01-10T13:06:57.283Z,75.77
2023-01-10T13:09:23.804Z,75.01
2023-01-10T13:11:50.185Z,75.00
2023-01-10T13:14:16.493Z,75.07
2023-01-10T13:16:42.961Z,75.28
2023-01-10T13:19:09.276Z,74.33
2023-01-10T13:21:35.663Z,73.74
2023-01-10T13:24:02.055Z,74.03
2023-01-10T13:26:28.414Z,73.62
2023-01-10T13:28:54.945Z,73.37
2023-01-10T13:31:21.398Z,72.54
2023-01-10T13:33:47.735Z,72.82
2023-01-10T13:36:14.080Z,72.91
2023-01-10T13:38:40.454Z,73.21
2023-01-10T13:41:06.753Z,72.30
2023-01-10T13:43:36.911Z,71.35
2023-01-10T13:46:03.328Z,72.45
2023-01-10T13:48:29.689Z,71.59
2023-01-10T13:50:56.001Z,72.99
2023-01-10T13:53:22.355Z,72.42
2023-01-10T13:55:53.934Z,72.49
2023-01-10T13:58:21.439Z,73.35
2023-01-10T14:01:06.785Z,73.26
2023-01-10T14:03:33.182Z,73.13
2023-01-10T14:05:59.591Z,72.48
2023-01-10T14:08:25.897Z,72.23
2023-01-10T14:10:52.203Z,72.66
2023-01-10T14:13:18.503Z,72.36
2023-01-10T14:15:45.928Z,72.23
2023-01-10T14:18:12.302Z,72.98
2023-01-10T14:20:38.682Z,72.92
2023-01-10T14:23:05.455Z,72.38
2023-01-10T14:25:31.820Z,72.30
2023-01-10T14:27:59.079Z,71.85
2023-01-10T14:30:25.394Z,72.22
2023-01-10T14:32:51.766Z,72.64
2023-01-10T14:35:18.079Z,72.83
2023-01-10T14:37:44.408Z,72.61
2023-01-10T14:40:10.715Z,72.60
2023-01-10T14:42:37.072Z,72.90
2023-01-10T14:45:03.417Z,73.04
2023-01-10T14:47:29.882Z,73.48
2023-01-10T14:50:03.406Z,73.16
2023-01-10T14:52:29.749Z,72.54
2023-01-10T14:54:57.037Z,72.07
2023-01-10T14:57:23.476Z,72.06
2023-01-10T14:59:50.251Z,71.66
2023-01-10T15:02:21.141Z,72.72
2023-01-10T15:04:47.569Z,72.65
2023-01-10T15:07:13.911Z,72.33
2023-01-10T15:09:40.302Z,72.41
2023-01-10T15:12:06.626Z,72.30
2023-01-10T15:14:33.032Z,71.98
2023-01-10T15:17:00.867Z,72.78
2023-01-10T15:19:27.176Z,71.94
2023-01-10T15:21:53.969Z,72.12
2023-01-10T15:24:20.294Z,73.40
2023-01-10T15:26:46.604Z,73.51
2023-01-10T15:29:13.267Z,72.21
2023-01-10T15:31:39.688Z,72.18
2023-01-10T15:34:06.052Z,73.54
2023-01-10T15:36:32.397Z,73.25
2023-01-10T15:38:58.769Z,72.83
2023-01-10T15:41:25.076Z,71.92
2023-01-10T15:43:54.345Z,72.36
2023-01-10T15:46:20.743Z,71.91
2023-01-10T15:48:47.165Z,72.14
2023-01-10T15:51:13.639Z,71.39
2023-01-10T15:53:39.960Z,70.76
2023-01-10T15:56:06.290Z,71.23
2023-01-10T15:58:32.598Z,71.05
2023-01-10T16:00:59.084Z,71.01
2023-01-10T16:03:25.670Z,72.04
2023-01-10T16:05:52.213Z,71.46
2023-01-10T16:08:18.539Z,71.74
2023-01-10T16:10:44.924Z,71.64
2023-01-10T16:13:31.760Z,72.21
2023-01-10T16:15:58.221Z,72.36
2023-01-10T16:18:24.599Z,70.88
2023-01-10T16:20:50.937Z,70.07
2023-01-10T16:23:17.562Z,71.80
2023-01-10T16:25:44.823Z,71.52
2023-01-10T16:28:11.129Z,71.05
2023-01-10T16:30:40.603Z,70.41
2023-01-10T16:33:06.949Z,71.13
2023-01-10T16:35:33.287Z,70.39
2023-01-10T16:38:00.716Z,71.03
2023-01-10T16:40:27.618Z,70.65
2023-01-10T16:43:12.893Z,73.25
2023-01-10T16:45:39.293Z,72.68
2023-01-10T16:48:05.662Z,71.67
2023-01-10T16:50:32.056Z,74.46
2023-01-10T16:52:58.369Z,73.62
2023-01-10T16:55:24.852Z,73.58
2023-01-10T16:57:51.832Z,71.97
2023-01-10T17:00:18.176Z,68.79
2023-01-10T17:02:44.519Z,68.74
2023-01-10T17:05:10.915Z,69.86
2023-01-10T17:07:37.325Z,67.94
2023-01-10T17:10:04.488Z,69.08
2023-01-10T17:12:30.816Z,69.83
2023-01-10T17:14:57.192Z,69.97
2023-01-10T17:17:23.508Z,68.96
2023-01-10T17:19:49.809Z,68.45
2023-01-10T17:22:16.193Z,69.64
2023-01-10T17:24:42.582Z,68.70
2023-01-10T17:27:08.995Z,70.77
2023-01-10T17:29:35.551Z,68.20
2023-01-10T17:32:02.043Z,68.86
2023-01-10T17:34:31.181Z,70.28
2023-01-10T17:36:57.493Z,70.90
2023-01-10T17:39:23.810Z,72.05
2023-01-10T17:41:50.390Z,72.57
2023-01-10T17:44:16.711Z,72.56
2023-01-10T17:46:43.043Z,72.74
2023-01-10T17:49:09.943Z,72.61
2023-01-10T17:51:37.141Z,72.23
2023-01-10T17:54:03.725Z,72.29
2023-01-10T17:56:30.067Z,72.23
2023-01-10T17:58:56.374Z,73.13
2023-01-10T18:01:25.236Z,73.05
2023-01-10T18:03:51.981Z,73.04
2023-01-10T18:06:23.811Z,73.00
2023-01-10T18:08:50.753Z,72.28
2023-01-10T18:11:17.189Z,72.10
2023-01-10T18:13:43.519Z,71.69
2023-01-10T18:16:09.851Z,72.73
2023-01-10T18:18:36.254Z,73.30
2023-01-10T18:21:05.347Z,72.90
2023-01-10T18:23:32.844Z,72.84
2023-01-10T18:26:02.425Z,72.09
2023-01-10T18:28:40.118Z,71.23
2023-01-10T18:31:07.607Z,70.99
2023-01-10T18:33:33.982Z,71.38
2023-01-10T18:36:00.316Z,71.93
2023-01-10T18:38:26.648Z,72.42
2023-01-10T18:40:53.030Z,73.10
2023-01-10T18:43:19.410Z,72.50
2023-01-10T18:45:45.805Z,72.21
2023-01-10T18:48:12.210Z,72.30
2023-01-10T18:50:38.540Z,72.53
2023-01-10T18:53:04.938Z,72.26
2023-01-10T18:55:31.335Z,72.87
2023-01-10T18:57:57.741Z,73.28
2023-01-10T19:00:24.074Z,73.99
2023-01-10T19:02:50.503Z,72.55
2023-01-10T19:05:16.933Z,73.34
2023-01-10T19:07:43.267Z,73.51
2023-01-10T19:10:10.192Z,74.31
2023-01-10T19:12:40.598Z,74.75
2023-01-10T19:15:06.945Z,74.76
2023-01-10T19:17:33.254Z,75.08
2023-01-10T19:19:59.584Z,74.82
2023-01-10T19:22:25.966Z,76.04
2023-01-10T19:24:52.310Z,76.05
2023-01-10T19:27:18.708Z,76.63
2023-01-10T19:29:48.239Z,76.52
2023-01-10T19:32:14.806Z,75.73
2023-01-10T19:34:41.167Z,75.52
2023-01-10T19:37:07.571Z,75.54
2023-01-10T19:39:33.954Z,75.92
2023-01-10T19:42:03.565Z,76.31
2023-01-10T19:44:29.958Z,76.34
2023-01-10T19:46:56.295Z,75.48
2023-01-10T19:49:23.479Z,75.50
2023-01-10T19:51:51.265Z,75.83
2023-01-10T19:54:17.653Z,76.54
2023-01-10T19:56:44.030Z,76.85
2023-01-10T19:59:10.422Z,77.34
2023-01-10T20:01:36.771Z,78.29
2023-01-10T20:04:03.126Z,78.37
2023-01-10T20:06:29.456Z,78.39
2023-01-10T20:08:55.918Z,77.71
2023-01-10T20:11:22.299Z,76.99
2023-01-10T20:13:49.411Z,77.27
2023-01-10T20:16:15.842Z,77.21
2023-01-10T20:18:42.220Z,77.30
2023-01-10T20:21:08.609Z,77.33
2023-01-10T20:23:34.939Z,77.65
2023-01-10T20:26:06.233Z,77.41
2023-01-10T20:28:32.558Z,77.93
2023-01-10T20:30:58.898Z,77.75
2023-01-10T20:33:26.941Z,78.22
2023-01-10T20:35:53.277Z,78.19
2023-01-10T20:38:19.667Z,78.72
2023-01-10T20:40:45.971Z,78.77
2023-01-10T20:43:12.478Z,78.85
2023-01-10T20:45:38.792Z,78.90
2023-01-10T20:48:05.434Z,78.55
2023-01-10T20:50:31.765Z,77.81
2023-01-10T20:52:58.079Z,77.01
2023-01-10T20:55:24.417Z,76.67
2023-01-10T20:57:50.757Z,76.64
2023-01-10T21:00:18.028Z,76.67
2023-01-10T21:02:44.446Z,76.85
2023-01-10T21:05:10.893Z,76.58
2023-01-10T21:07:37.222Z,76.58
2023-01-10T21:10:03.568Z,76.25
2023-01-10T21:12:31.313Z,76.87
2023-01-10T21:14:57.640Z,77.03
2023-01-10T21:17:23.979Z,77.88
2023-01-10T21:19:50.303Z,78.59
2023-01-10T21:22:17.344Z,79.33
2023-01-10T21:24:43.667Z,80.51
2023-01-10T21:27:10.039Z,81.27
2023-01-10T21:29:36.479Z,81.55
2023-01-10T21:32:02.840Z,81.30
2023-01-10T21:34:29.165Z,81.28
2023-01-10T21:36:57.003Z,81.24
2023-01-10T21:39:23.337Z,81.29
2023-01-10T21:42:08.472Z,82.34
2023-01-10T21:44:34.801Z,81.75
2023-01-10T21:47:01.212Z,81.54
2023-01-10T21:49:27.581Z,81.36
2023-01-10T21:51:53.886Z,81.10
2023-01-10T21:54:20.283Z,81.56
2023-01-10T21:56:46.624Z,81.31
2023-01-10T21:59:12.956Z,81.00
2023-01-10T22:01:39.273Z,81.58
2023-01-10T22:04:05.638Z,82.40
2023-01-10T22:06:32.088Z,81.70
2023-01-10T22:08:58.461Z,81.45
2023-01-10T22:11:24.784Z,81.40
2023-01-10T22:13:52.768Z,81.50
2023-01-10T22:16:19.134Z,81.67
2023-01-10T22:18:45.700Z,82.12
2023-01-10T22:21:12.660Z,82.37
2023-01-10T22:23:43.015Z,82.45
2023-01-10T22:26:09.346Z,82.35
2023-01-10T22:28:35.705Z,82.90
2023-01-10T22:31:02.016Z,82.62
2023-01-10T22:33:28.338Z,82.45
2023-01-10T22:35:54.665Z,83.09
2023-01-10T22:38:20.989Z,83.57
2023-01-10T22:40:47.313Z,83.44
2023-01-10T22:43:13.717Z,83.35
2023-01-10T22:45:40.113Z,83.38
2023-01-10T22:48:06.474Z,83.10
2023-01-10T22:50:32.807Z,83.65
2023-01-10T22:52:59.127Z,83.13
2023-01-10T22:55:25.455Z,83.09
2023-01-10T22:57:51.769Z,83.00
2023-01-10T23:00:18.152Z,83.26
2023-01-10T23:02:44.529Z,83.55
2023-01-10T23:05:10.892Z,83.63
2023-01-10T23:07:37.263Z,84.00
2023-01-10T23:10:03.577Z,84.13
2023-01-10T23:12:29.896Z,84.43
2023-01-10T23:14:56.271Z,84.20
2023-01-10T23:17:23.697Z,84.47
2023-01-10T23:19:50.020Z,85.35
2023-01-10T23:22:16.368Z,85.52
2023-01-10T23:24:42.699Z,86.00
2023-01-10T23:27:09.015Z,85.73
2023-01-10T23:29:35.338Z,85.68
2023-01-10T23:32:01.831Z,86.07
2023-01-10T23:34:28.158Z,86.21
2023-01-10T23:36:54.475Z,85.88
2023-01-10T23:39:20.781Z,85.70
2023-01-10T23:41:47.133Z,86.03
2023-01-10T23:44:13.519Z,86.20
2023-01-10T23:46:39.855Z,86.65
2023-01-10T23:49:06.238Z,86.56
2023-01-10T23:51:32.556Z,86.01
2023-01-10T23:53:58.962Z,87.00
2023-01-10T23:56:25.282Z,87.57
2023-01-10T23:58:52.587Z,88.46
